Time;durP1;ratioP1;P1;durP2;ratioP2;P2;SDS_P1;SDS_P2;PMS_P1;PMS_P2;Temp;Humidity;BMP_temperature;BMP_pressure;BME280_temperature;BME280_humidity;BME280_pressure;Samples;Min_cycle;Max_cycle;Signal;HPM_P1;HPM_P2
2022/09/07 00:01:01;;;;;;;;;;;;;;;24.32;62.90;99409.34;7314018;19;131133;-39
2022/09/07 00:03:26;;;;;;;;;;;;;;;24.31;62.95;99404.25;7315388;19;129492;-40
2022/09/07 00:05:52;;;;;;;;;;;;;;;24.31;63.61;99396.38;7315219;19;130077;-38
2022/09/07 00:08:19;;;;;;;;;;;;;;;24.31;63.04;99401.63;7315404;19;129795;-40
2022/09/07 00:10:51;;;;;;;;;;;;;;;24.33;62.84;99395.22;7317187;19;130158;-39
2022/09/07 00:13:16;;;;;;;;;;;;;;;24.32;63.17;99392.75;7313976;19;130095;-40
2022/09/07 00:15:42;;;;;;;;;;;;;;;24.33;62.93;99395.22;7316908;19;129609;-38
2022/09/07 00:18:07;;;;;;;;;;;;;;;24.32;62.54;99400.63;7312903;19;129923;-39
2022/09/07 00:20:32;;;;;;;;;;;;;;;24.31;62.80;99397.19;7316260;19;129591;-40
2022/09/07 00:22:57;;;;;;;;;;;;;;;24.32;62.82;99395.38;7313879;19;129685;-36
2022/09/07 00:25:23;;;;;;;;;;;;;;;24.30;63.13;99390.28;7316242;19;129733;-41
2022/09/07 00:27:48;;;;;;;;;;;;;;;24.32;63.06;99387.50;7314073;19;128875;-40
2022/09/07 00:30:13;;;;;;;;;;;;;;;24.31;63.44;99378.78;7313520;19;129016;-40
2022/09/07 00:32:38;;;;;;;;;;;;;;;24.31;62.98;99381.41;7314583;19;129698;-40
2022/09/07 00:35:04;;;;;;;;;;;;;;;24.31;63.53;99388.50;7315331;19;130257;-40
2022/09/07 00:37:29;;;;;;;;;;;;;;;24.31;63.26;99378.78;7314447;19;128874;-39
2022/09/07 00:39:54;;;;;;;;;;;;;;;24.32;63.25;99375.19;7312828;19;129078;-39
2022/09/07 00:42:20;;;;;;;;;;;;;;;24.31;63.36;99373.53;7314718;19;129691;-41
2022/09/07 00:45:00;;;;;;;;;;;;;;;24.31;63.38;99370.09;7315051;19;129209;-40
2022/09/07 00:47:33;;;;;;;;;;;;;;;24.32;62.77;99372.56;7313957;19;129142;-40
2022/09/07 00:50:02;;;;;;;;;;;;;;;24.31;63.37;99368.28;7314800;19;130206;-40
2022/09/07 00:52:28;;;;;;;;;;;;;;;24.30;63.05;99364.00;7312827;19;130275;-40
2022/09/07 00:54:55;;;;;;;;;;;;;;;24.30;62.69;99361.38;7314936;19;129284;-40
2022/09/07 00:57:21;;;;;;;;;;;;;;;24.31;63.29;99363.03;7314088;19;129195;-38
2022/09/07 00:59:48;;;;;;;;;;;;;;;24.32;63.06;99367.31;7313243;19;130111;-41
2022/09/07 01:02:15;;;;;;;;;;;;;;;24.33;62.99;99368.94;7313935;19;130879;-41
2022/09/07 01:04:43;;;;;;;;;;;;;;;24.32;63.47;99372.56;7314660;19;128983;-41
2022/09/07 01:07:08;;;;;;;;;;;;;;;24.32;63.18;99366.47;7314275;19;129078;-40
2022/09/07 01:09:33;;;;;;;;;;;;;;;24.31;63.01;99360.38;7312632;19;129226;-39
2022/09/07 01:12:01;;;;;;;;;;;;;;;24.31;63.44;99360.38;7313475;19;129427;-38
2022/09/07 01:14:32;;;;;;;;;;;;;;;24.30;63.11;99361.38;7314728;19;129128;-41
2022/09/07 01:17:14;;;;;;;;;;;;;;;24.30;63.19;99364.00;7312859;19;128855;-39
2022/09/07 01:19:40;;;;;;;;;;;;;;;24.31;63.37;99349.09;7313678;19;129540;-38
2022/09/07 01:22:20;;;;;;;;;;;;;;;24.30;62.86;99347.41;7310514;19;130987;-41
2022/09/07 01:24:45;;;;;;;;;;;;;;;24.30;62.62;99348.25;7314883;19;129762;-40
2022/09/07 01:27:26;;;;;;;;;;;;;;;24.22;63.06;99335.13;7314066;19;129031;-39
2022/09/07 01:29:57;;;;;;;;;;;;;;;24.32;63.50;99353.34;7313493;19;130098;-39
2022/09/07 01:32:35;;;;;;;;;;;;;;;24.31;63.22;99351.72;7312037;19;131275;-39
2022/09/07 01:35:02;;;;;;;;;;;;;;;24.25;63.18;99336.56;7314355;19;129401;-39
2022/09/07 01:37:42;;;;;;;;;;;;;;;24.32;63.44;99356.81;7312297;19;128834;-41
2022/09/07 01:40:07;;;;;;;;;;;;;;;24.30;63.40;99344.78;7311206;19;131409;-39
2022/09/07 01:42:38;;;;;;;;;;;;;;;24.30;63.41;99343.00;7309511;19;130922;-40
2022/09/07 01:45:10;;;;;;;;;;;;;;;24.32;63.12;99346.28;7314191;19;129156;-40
2022/09/07 01:47:41;;;;;;;;;;;;;;;24.31;63.25;99339.38;7311349;19;130615;-40
2022/09/07 01:50:15;;;;;;;;;;;;;;;24.32;62.98;99338.41;7313708;19;129684;-38
2022/09/07 01:52:43;;;;;;;;;;;;;;;24.26;62.66;99336.41;7317562;19;130928;-38
2022/09/07 01:55:12;;;;;;;;;;;;;;;24.32;62.68;99335.78;7321532;19;128771;-40
2022/09/07 01:57:54;;;;;;;;;;;;;;;24.31;63.34;99342.00;7319782;19;128913;-41
2022/09/07 02:00:19;;;;;;;;;;;;;;;24.32;63.29;99342.84;7320748;19;130282;-39
2022/09/07 02:02:47;;;;;;;;;;;;;;;24.32;63.09;99346.28;7319207;19;129459;-38
2022/09/07 02:05:16;;;;;;;;;;;;;;;24.31;62.65;99355.13;7320270;19;130003;-39
2022/09/07 02:07:47;;;;;;;;;;;;;;;24.23;62.63;99341.16;7318320;19;129085;-40
2022/09/07 02:10:20;;;;;;;;;;;;;;;24.31;62.97;99352.50;7319047;19;130564;-39
2022/09/07 02:12:45;;;;;;;;;;;;;;;24.31;62.93;99355.13;7318860;19;130965;-37
2022/09/07 02:15:16;;;;;;;;;;;;;;;24.31;62.69;99352.50;7319674;19;129424;-39
2022/09/07 02:17:43;;;;;;;;;;;;;;;24.22;62.97;99335.13;7317948;19;129091;-40
2022/09/07 02:20:10;;;;;;;;;;;;;;;24.31;63.08;99357.75;7318824;19;129494;-40
2022/09/07 02:22:38;;;;;;;;;;;;;;;24.32;63.11;99355.97;7318788;19;130216;-39
2022/09/07 02:25:05;;;;;;;;;;;;;;;24.22;62.66;99332.47;7319620;19;129071;-40
2022/09/07 02:27:42;;;;;;;;;;;;;;;24.33;63.35;99341.84;7318754;19;129048;-41
2022/09/07 02:30:08;;;;;;;;;;;;;;;24.31;62.75;99336.75;7319075;19;130245;-38
2022/09/07 02:32:33;;;;;;;;;;;;;;;24.31;62.75;99336.75;7317105;19;129785;-39
2022/09/07 02:34:58;;;;;;;;;;;;;;;24.31;62.57;99339.38;7319031;19;129073;-39
2022/09/07 02:37:25;;;;;;;;;;;;;;;24.30;63.05;99332.50;7318605;19;129010;-39
2022/09/07 02:39:51;;;;;;;;;;;;;;;24.23;63.19;99313.09;7319891;19;129650;-41
2022/09/07 02:42:16;;;;;;;;;;;;;;;24.32;62.71;99327.91;7316403;19;129566;-39
2022/09/07 02:44:44;;;;;;;;;;;;;;;24.32;62.62;99327.06;7318656;19;129213;-39
2022/09/07 02:47:28;;;;;;;;;;;;;;;24.31;62.38;99320.97;7317914;19;129233;-41
2022/09/07 02:50:11;;;;;;;;;;;;;;;24.32;63.34;99325.28;7317891;19;129197;-40
2022/09/07 02:52:37;;;;;;;;;;;;;;;24.31;62.87;99315.72;7317115;19;130375;-39
2022/09/07 02:55:05;;;;;;;;;;;;;;;24.32;63.38;99314.75;7318119;19;128982;-39
2022/09/07 02:57:36;;;;;;;;;;;;;;;24.31;62.57;99310.47;7317397;19;130968;-39
2022/09/07 03:00:05;;;;;;;;;;;;;;;24.33;62.97;99315.56;7317667;19;130776;-38
2022/09/07 03:02:40;;;;;;;;;;;;;;;24.26;63.00;99304.09;7317926;19;130572;-39
2022/09/07 03:05:27;;;;;;;;;;;;;;;24.32;63.21;99320.00;7318347;19;130189;-40
2022/09/07 03:08:04;;;;;;;;;;;;;;;24.32;63.05;99309.50;7316817;19;129643;-41
2022/09/07 03:10:30;;;;;;;;;;;;;;;24.31;63.35;99312.31;7318115;19;129795;-41
2022/09/07 03:12:55;;;;;;;;;;;;;;;24.32;62.94;99319.19;7317722;19;130180;-40
2022/09/07 03:15:22;;;;;;;;;;;;;;;24.32;62.95;99314.75;7317875;19;128754;-40
2022/09/07 03:17:48;;;;;;;;;;;;;;;24.32;62.60;99314.75;7315945;19;129454;-40
2022/09/07 03:20:15;;;;;;;;;;;;;;;24.32;62.98;99321.81;7318003;19;130932;-40
2022/09/07 03:22:41;;;;;;;;;;;;;;;24.31;62.50;99328.88;7316589;19;129795;-39
2022/09/07 03:25:06;;;;;;;;;;;;;;;24.21;62.83;99317.69;7319241;19;130805;-40
2022/09/07 03:27:32;;;;;;;;;;;;;;;24.31;63.35;99334.13;7316588;19;129124;-39
2022/09/07 03:29:58;;;;;;;;;;;;;;;24.30;62.82;99332.50;7318837;19;130244;-39
2022/09/07 03:32:23;;;;;;;;;;;;;;;24.30;62.65;99327.22;7316071;19;129603;-39
2022/09/07 03:34:49;;;;;;;;;;;;;;;24.22;63.00;99313.25;7317315;19;129008;-41
2022/09/07 03:37:14;;;;;;;;;;;;;;;24.32;62.88;99335.78;7315878;19;128996;-39
2022/09/07 03:39:39;;;;;;;;;;;;;;;24.30;63.32;99332.50;7316318;19;130226;-39
2022/09/07 03:42:05;;;;;;;;;;;;;;;24.31;63.31;99328.88;7313701;19;130140;-40
2022/09/07 03:44:30;;;;;;;;;;;;;;;24.30;63.21;99332.50;7316931;19;128928;-39
2022/09/07 03:46:56;;;;;;;;;;;;;;;24.30;62.86;99324.59;7314923;19;129545;-40
2022/09/07 03:49:21;;;;;;;;;;;;;;;24.30;63.44;99326.41;7315629;19;130123;-39
2022/09/07 03:51:46;;;;;;;;;;;;;;;24.30;62.71;99324.59;7315270;19;130001;-39
2022/09/07 03:54:11;;;;;;;;;;;;;;;24.29;62.84;99330.84;7315451;19;129154;-39
2022/09/07 03:56:37;;;;;;;;;;;;;;;24.30;63.24;99332.50;7316099;19;129092;-39
2022/09/07 03:59:02;;;;;;;;;;;;;;;24.31;62.67;99330.69;7312510;19;130096;-39
2022/09/07 04:01:27;;;;;;;;;;;;;;;24.31;62.99;99334.13;7313224;19;129971;-40
2022/09/07 04:03:56;;;;;;;;;;;;;;;24.28;63.37;99329.19;7315715;19;130893;-38
2022/09/07 04:06:21;;;;;;;;;;;;;;;24.29;63.19;99328.22;7315710;19;129497;-40
2022/09/07 04:08:47;;;;;;;;;;;;;;;24.29;63.00;99330.84;7312305;19;130137;-38
2022/09/07 04:11:13;;;;;;;;;;;;;;;24.30;62.81;99327.22;7314431;19;131821;-38
2022/09/07 04:13:39;;;;;;;;;;;;;;;24.30;62.69;99321.97;7312689;19;129097;-38
2022/09/07 04:16:30;;;;;;;;;;;;;;;24.29;63.37;99320.34;7315192;19;129085;-38
2022/09/07 04:18:57;;;;;;;;;;;;;;;24.22;63.17;99303.59;7311991;19;130129;-40
2022/09/07 04:21:23;;;;;;;;;;;;;;;24.30;63.29;99316.72;7311687;19;130627;-38
2022/09/07 04:23:49;;;;;;;;;;;;;;;24.28;63.30;99318.69;7314230;19;130648;-39
2022/09/07 04:26:17;;;;;;;;;;;;;;;24.28;63.11;99308.19;7315021;19;129132;-40
2022/09/07 04:28:42;;;;;;;;;;;;;;;24.28;63.26;99318.69;7313799;19;128984;-41
2022/09/07 04:31:08;;;;;;;;;;;;;;;24.29;63.24;99322.97;7314578;19;130854;-40
2022/09/07 04:33:33;;;;;;;;;;;;;;;24.28;63.05;99323.94;7313349;19;129095;-40
2022/09/07 04:35:59;;;;;;;;;;;;;;;24.29;62.95;99328.22;7315229;19;129256;-39
2022/09/07 04:38:25;;;;;;;;;;;;;;;24.30;62.67;99332.50;7314902;19;129807;-37
2022/09/07 04:40:57;;;;;;;;;;;;;;;24.29;62.93;99319.50;7314024;19;129611;-40
2022/09/07 04:43:22;;;;;;;;;;;;;;;24.31;63.23;99320.19;7315175;19;129185;-40
2022/09/07 04:45:47;;;;;;;;;;;;;;;24.20;62.63;99302.91;7315453;19;128779;-40
2022/09/07 04:48:13;;;;;;;;;;;;;;;24.30;62.81;99319.34;7313162;19;130314;-40
2022/09/07 04:50:38;;;;;;;;;;;;;;;24.29;62.92;99315.09;7314608;19;130637;-40
2022/09/07 04:53:03;;;;;;;;;;;;;;;24.29;63.01;99315.09;7312904;19;128911;-39
2022/09/07 04:55:30;;;;;;;;;;;;;;;24.38;62.43;99314.09;7314718;19;129645;-40
2022/09/07 04:57:55;;;;;;;;;;;;;;;24.38;62.73;99308.84;7312652;19;129651;-41
2022/09/07 05:00:21;;;;;;;;;;;;;;;24.35;62.18;99313.59;7314171;19;131388;-40
2022/09/07 05:02:46;;;;;;;;;;;;;;;24.38;62.46;99318.50;7309029;19;129892;-38
2022/09/07 05:05:11;;;;;;;;;;;;;;;24.32;62.42;99319.19;7313011;19;129160;-40
2022/09/07 05:07:36;;;;;;;;;;;;;;;24.36;62.34;99315.25;7314460;19;130486;-41
2022/09/07 05:10:02;;;;;;;;;;;;;;;24.35;61.55;99319.69;7314416;19;129187;-40
2022/09/07 05:12:27;;;;;;;;;;;;;;;24.31;61.84;99323.59;7305255;19;129878;-41
2022/09/07 05:14:52;;;;;;;;;;;;;;;24.30;61.70;99321.97;7296784;19;130368;-38
2022/09/07 05:17:18;;;;;;;;;;;;;;;24.30;61.96;99321.97;7309454;19;130658;-38
2022/09/07 05:19:44;;;;;;;;;;;;;;;24.31;61.53;99318.34;7314042;19;130221;-41
2022/09/07 05:22:09;;;;;;;;;;;;;;;24.25;61.57;99307.69;7311967;19;128976;-38
2022/09/07 05:24:35;;;;;;;;;;;;;;;24.32;61.62;99313.94;7313778;19;129131;-38
2022/09/07 05:27:01;;;;;;;;;;;;;;;24.30;61.69;99315.88;7310835;19;130215;-37
2022/09/07 05:29:27;;;;;;;;;;;;;;;24.25;61.40;99316.38;7312048;19;129707;-38
2022/09/07 05:31:53;;;;;;;;;;;;;;;24.22;62.23;99314.09;7313660;19;130310;-37
2022/09/07 05:34:18;;;;;;;;;;;;;;;24.23;62.00;99310.47;7313457;19;129378;-38
2022/09/07 05:36:44;;;;;;;;;;;;;;;24.21;62.71;99312.44;7314126;19;129003;-37
2022/09/07 05:39:09;;;;;;;;;;;;;;;24.21;62.66;99306.38;7314459;19;130652;-38
2022/09/07 05:41:34;;;;;;;;;;;;;;;24.21;62.19;99307.19;7312036;19;129696;-37
2022/09/07 05:44:00;;;;;;;;;;;;;;;24.21;62.63;99307.19;7309672;19;129210;-38
2022/09/07 05:46:25;;;;;;;;;;;;;;;24.21;62.30;99311.63;7313272;19;129270;-38
2022/09/07 05:48:50;;;;;;;;;;;;;;;24.20;62.68;99305.56;7311434;19;129107;-37
2022/09/07 05:51:16;;;;;;;;;;;;;;;24.22;62.57;99313.25;7312509;19;129993;-38
2022/09/07 05:53:42;;;;;;;;;;;;;;;24.17;62.90;99305.88;7313323;19;129385;-38
2022/09/07 05:56:07;;;;;;;;;;;;;;;24.19;62.19;99317.06;7313574;19;129055;-38
2022/09/07 05:58:33;;;;;;;;;;;;;;;24.22;62.41;99323.78;7307905;19;130718;-38
2022/09/07 06:01:06;;;;;;;;;;;;;;;24.21;62.65;99322.94;7310271;19;129209;-38
2022/09/07 06:03:32;;;;;;;;;;;;;;;24.21;62.15;99328.19;7312690;19;129231;-38
2022/09/07 06:06:05;;;;;;;;;;;;;;;24.19;62.67;99319.69;7311963;19;129408;-37
2022/09/07 06:08:31;;;;;;;;;;;;;;;24.21;62.59;99312.44;7309212;19;129580;-38
2022/09/07 06:10:56;;;;;;;;;;;;;;;24.21;62.07;99309.81;7311170;19;129378;-38
2022/09/07 06:13:22;;;;;;;;;;;;;;;24.21;62.68;99307.19;7312228;19;130189;-38
2022/09/07 06:15:47;;;;;;;;;;;;;;;24.22;62.05;99303.59;7303658;19;132285;-38
2022/09/07 06:18:13;;;;;;;;;;;;;;;24.22;62.08;99297.50;7306454;19;129881;-38
2022/09/07 06:20:38;;;;;;;;;;;;;;;24.22;62.64;99300.13;7312328;19;128865;-38
2022/09/07 06:23:03;;;;;;;;;;;;;;;24.22;62.87;99295.72;7307534;19;129268;-38
2022/09/07 06:25:28;;;;;;;;;;;;;;;24.21;62.98;99291.41;7312410;19;129966;-38
2022/09/07 06:27:54;;;;;;;;;;;;;;;24.22;62.65;99287.81;7310993;19;129651;-38
2022/09/07 06:30:19;;;;;;;;;;;;;;;24.21;62.47;99286.16;7312533;19;130236;-38
2022/09/07 06:32:45;;;;;;;;;;;;;;;24.22;62.66;99279.94;7311255;19;129136;-38
2022/09/07 06:35:10;;;;;;;;;;;;;;;24.21;62.82;99280.91;7312323;19;130156;-38
2022/09/07 06:37:36;;;;;;;;;;;;;;;24.24;62.46;99280.59;7314700;19;130422;-38
2022/09/07 06:40:01;;;;;;;;;;;;;;;24.23;62.58;99280.75;7319870;19;129093;-38
2022/09/07 06:42:27;;;;;;;;;;;;;;;24.23;62.35;99284.19;7314222;19;129651;-38
2022/09/07 06:44:52;;;;;;;;;;;;;;;24.22;62.37;99293.09;7318313;19;130182;-37
2022/09/07 06:47:17;;;;;;;;;;;;;;;24.22;62.34;99298.34;7318882;19;130424;-39
2022/09/07 06:49:43;;;;;;;;;;;;;;;24.21;62.63;99286.16;7319174;19;128994;-38
2022/09/07 06:52:08;;;;;;;;;;;;;;;24.21;62.92;99299.31;7318009;19;128900;-38
2022/09/07 06:54:33;;;;;;;;;;;;;;;24.21;63.05;99304.56;7318069;19;129626;-38
2022/09/07 06:56:58;;;;;;;;;;;;;;;24.22;62.07;99305.38;7317560;19;129307;-38
2022/09/07 06:59:24;;;;;;;;;;;;;;;24.23;62.38;99299.13;7318616;19;128897;-38
2022/09/07 07:01:49;;;;;;;;;;;;;;;24.22;62.42;99294.88;7315360;19;129050;-38
2022/09/07 07:04:14;;;;;;;;;;;;;;;24.23;62.35;99299.97;7318543;19;130590;-38
2022/09/07 07:06:39;;;;;;;;;;;;;;;24.24;62.22;99290.28;7318834;19;130498;-37
2022/09/07 07:09:05;;;;;;;;;;;;;;;24.23;62.97;99293.88;7316032;19;129137;-37
2022/09/07 07:11:31;;;;;;;;;;;;;;;24.20;62.94;99300.28;7317757;19;128861;-38
2022/09/07 07:13:56;;;;;;;;;;;;;;;24.22;62.44;99300.97;7318786;19;129532;-38
2022/09/07 07:16:22;;;;;;;;;;;;;;;24.21;62.65;99291.41;7318628;19;130186;-39
2022/09/07 07:18:51;;;;;;;;;;;;;;;24.23;62.44;99293.88;7315817;19;129121;-38
2022/09/07 07:21:16;;;;;;;;;;;;;;;24.23;62.70;99294.72;7317595;19;129366;-38
2022/09/07 07:23:41;;;;;;;;;;;;;;;24.22;62.69;99293.09;7317509;19;129299;-38
2022/09/07 07:26:09;;;;;;;;;;;;;;;24.22;62.45;99297.50;7318161;19;130160;-38
2022/09/07 07:28:34;;;;;;;;;;;;;;;24.21;62.45;99296.66;7316696;19;129144;-37
2022/09/07 07:31:00;;;;;;;;;;;;;;;24.23;62.93;99293.88;7317521;19;128993;-38
2022/09/07 07:33:33;;;;;;;;;;;;;;;24.14;63.06;99279.94;7317680;19;129572;-38
2022/09/07 07:36:07;;;;;;;;;;;;;;;24.23;62.97;99291.25;7317298;19;129642;-38
2022/09/07 07:38:32;;;;;;;;;;;;;;;24.15;62.70;99271.06;7316261;19;129138;-37
2022/09/07 07:40:58;;;;;;;;;;;;;;;24.25;62.45;99292.75;7318424;19;129049;-37
2022/09/07 07:43:23;;;;;;;;;;;;;;;24.23;63.04;99286.00;7317618;19;129411;-38
2022/09/07 07:45:48;;;;;;;;;;;;;;;24.19;62.66;99277.66;7318420;19;129200;-37
2022/09/07 07:48:13;;;;;;;;;;;;;;;24.22;62.95;99282.56;7314111;19;131555;-37
2022/09/07 07:50:39;;;;;;;;;;;;;;;24.22;63.11;99277.31;7317404;19;128980;-37
2022/09/07 07:53:04;;;;;;;;;;;;;;;24.24;63.35;99274.53;7317658;19;129103;-38
2022/09/07 07:55:29;;;;;;;;;;;;;;;24.22;63.21;99277.31;7316417;19;131429;-37
2022/09/07 07:57:55;;;;;;;;;;;;;;;24.23;63.03;99272.88;7316245;19;128785;-38
2022/09/07 08:00:21;;;;;;;;;;;;;;;24.22;63.07;99274.69;7317836;19;128924;-37
2022/09/07 08:02:46;;;;;;;;;;;;;;;24.19;63.21;99271.56;7313465;19;129401;-38
2022/09/07 08:05:11;;;;;;;;;;;;;;;24.11;62.83;99261.06;7317447;19;129180;-37
2022/09/07 08:07:37;;;;;;;;;;;;;;;24.23;62.64;99272.88;7315506;19;129244;-38
2022/09/07 08:10:02;;;;;;;;;;;;;;;24.22;63.04;99277.31;7317554;19;129288;-41
2022/09/07 08:12:30;;;;;;;;;;;;;;;24.19;63.73;99272.41;7316048;19;130101;-40
2022/09/07 08:14:55;;;;;;;;;;;;;;;24.15;63.20;99267.63;7316281;19;129622;-38
2022/09/07 08:17:20;;;;;;;;;;;;;;;24.14;62.72;99261.56;7315113;19;128853;-36
2022/09/07 08:19:46;;;;;;;;;;;;;;;24.15;63.86;99268.44;7317141;19;129521;-41
2022/09/07 08:22:11;;;;;;;;;;;;;;;24.15;63.90;99275.50;7313936;19;129346;-38
2022/09/07 08:24:37;;;;;;;;;;;;;;;24.13;63.57;99283.53;7316127;19;130307;-41
2022/09/07 08:27:02;;;;;;;;;;;;;;;24.18;63.57;99286.50;7316559;19;129264;-41
2022/09/07 08:29:27;;;;;;;;;;;;;;;24.18;63.33;99276.00;7316020;19;129599;-38
2022/09/07 08:31:52;;;;;;;;;;;;;;;24.21;63.29;99286.16;7315059;19;129727;-41
2022/09/07 08:34:18;;;;;;;;;;;;;;;24.21;62.95;99283.53;7316266;19;129591;-40
2022/09/07 08:36:43;;;;;;;;;;;;;;;24.21;62.88;99280.09;7316370;19;128848;-41
2022/09/07 08:39:08;;;;;;;;;;;;;;;24.20;62.96;99274.03;7313207;19;129680;-40
2022/09/07 08:41:45;;;;;;;;;;;;;;;24.21;63.05;99269.59;7314516;19;129478;-38
2022/09/07 08:44:22;;;;;;;;;;;;;;;24.20;62.92;99274.03;7316400;19;130385;-40
2022/09/07 08:46:53;;;;;;;;;;;;;;;24.20;63.09;99274.03;7316131;19;129768;-38
2022/09/07 08:49:21;;;;;;;;;;;;;;;24.20;62.91;99270.56;7315702;19;128701;-39
2022/09/07 08:51:57;;;;;;;;;;;;;;;24.13;63.14;99270.41;7315141;19;130424;-38
2022/09/07 08:54:22;;;;;;;;;;;;;;;24.15;63.53;99265.81;7315352;19;129430;-41
2022/09/07 08:56:49;;;;;;;;;;;;;;;24.11;63.01;99247.94;7315943;19;128939;-40
2022/09/07 08:59:21;;;;;;;;;;;;;;;24.19;63.48;99250.56;7315652;19;129255;-38
2022/09/07 09:01:46;;;;;;;;;;;;;;;24.19;62.94;99261.88;7313610;19;129957;-39
2022/09/07 09:04:20;;;;;;;;;;;;;;;24.21;62.96;99262.53;7315001;19;130608;-40
2022/09/07 09:06:51;;;;;;;;;;;;;;;24.17;63.12;99263.03;7315553;19;129242;-39
2022/09/07 09:09:16;;;;;;;;;;;;;;;24.07;63.63;99242.19;7315820;19;129493;-39
2022/09/07 09:11:43;;;;;;;;;;;;;;;24.19;63.24;99263.69;7314501;19;129753;-39
2022/09/07 09:14:23;;;;;;;;;;;;;;;24.11;63.65;99248.72;7314293;19;130924;-39
2022/09/07 09:16:56;;;;;;;;;;;;;;;24.15;63.80;99254.47;7313998;19;129156;-38
2022/09/07 09:19:21;;;;;;;;;;;;;;;24.18;63.85;99248.91;7314797;19;129140;-40
2022/09/07 09:21:46;;;;;;;;;;;;;;;24.18;63.45;99252.34;7313613;19;130143;-41
2022/09/07 09:24:17;;;;;;;;;;;;;;;24.19;62.97;99246.13;7314293;19;129263;-41
2022/09/07 09:26:45;;;;;;;;;;;;;;;24.18;63.33;99244.47;7314834;19;129190;-38
2022/09/07 09:29:18;;;;;;;;;;;;;;;24.23;62.81;99252.69;7313818;19;129271;-41
2022/09/07 09:31:44;;;;;;;;;;;;;;;24.24;62.73;99250.88;7312959;19;129115;-40
2022/09/07 09:34:17;;;;;;;;;;;;;;;24.16;62.77;99230.66;7314502;19;130308;-38
2022/09/07 09:36:45;;;;;;;;;;;;;;;24.24;62.45;99246.47;7314135;19;129772;-41
2022/09/07 09:39:30;;;;;;;;;;;;;;;24.16;63.06;99241.19;7314312;19;129150;-42
2022/09/07 09:41:57;;;;;;;;;;;;;;;24.21;63.45;99252.00;7312672;19;129420;-37
2022/09/07 09:44:27;;;;;;;;;;;;;;;24.13;63.81;99248.59;7313713;19;129438;-40
2022/09/07 09:46:53;;;;;;;;;;;;;;;24.08;63.82;99228.06;7313958;19;128959;-41
2022/09/07 09:49:22;;;;;;;;;;;;;;;24.07;63.33;99238.72;7313408;19;128874;-41
2022/09/07 09:51:51;;;;;;;;;;;;;;;24.00;63.92;99235.94;7312916;19;129273;-41
2022/09/07 09:54:22;;;;;;;;;;;;;;;23.93;64.83;99229.66;7313542;19;129236;-41
2022/09/07 09:56:48;;;;;;;;;;;;;;;23.96;63.42;99221.47;7314409;19;128681;-41
2022/09/07 09:59:16;;;;;;;;;;;;;;;24.16;63.56;99229.88;7314132;19;129530;-41
2022/09/07 10:01:42;;;;;;;;;;;;;;;24.17;63.62;99232.34;7312302;19;130088;-40
2022/09/07 10:04:17;;;;;;;;;;;;;;;24.18;63.43;99228.72;7314624;19;129310;-41
2022/09/07 10:06:50;;;;;;;;;;;;;;;24.17;63.26;99224.44;7312993;19;128849;-38
2022/09/07 10:09:18;;;;;;;;;;;;;;;24.17;62.87;99232.34;7313866;19;129156;-41
2022/09/07 10:11:48;;;;;;;;;;;;;;;24.20;63.29;99232.00;7314112;19;129562;-41
2022/09/07 10:14:39;;;;;;;;;;;;;;;24.23;63.07;99233.47;7319587;19;129412;-41
2022/09/07 10:17:10;;;;;;;;;;;;;;;24.22;62.89;99232.66;7318540;19;129070;-39
2022/09/07 10:19:36;;;;;;;;;;;;;;;24.12;62.68;99213.63;7320566;19;129145;-41
2022/09/07 10:22:04;;;;;;;;;;;;;;;24.22;63.41;99235.28;7319005;19;129448;-37
2022/09/07 10:24:38;;;;;;;;;;;;;;;24.15;63.17;99229.03;7320122;19;129314;-41
2022/09/07 10:27:24;;;;;;;;;;;;;;;24.15;63.33;99233.47;7319710;19;129042;-41
2022/09/07 10:29:49;;;;;;;;;;;;;;;24.11;63.41;99211.97;7318938;19;128831;-39
2022/09/07 10:32:26;;;;;;;;;;;;;;;24.21;63.45;99223.13;7318884;19;129013;-41
2022/09/07 10:35:14;;;;;;;;;;;;;;;24.23;63.45;99220.31;7320269;19;130993;-41
2022/09/07 10:37:42;;;;;;;;;;;;;;;24.22;63.23;99230.03;7318498;19;129050;-40
2022/09/07 10:40:39;;;;;;;;;;;;;;;24.23;63.08;99230.81;7320086;19;131382;-40
2022/09/07 10:43:04;;;;;;;;;;;;;;;24.26;63.03;99236.56;7314713;19;129961;-40
2022/09/07 10:45:42;;;;;;;;;;;;;;;24.19;63.80;99235.63;7318585;19;129554;-37
2022/09/07 10:48:19;;;;;;;;;;;;;;;24.18;63.07;99231.34;7317963;19;128832;-37
2022/09/07 10:50:55;;;;;;;;;;;;;;;24.22;62.81;99226.56;7318815;19;128966;-41
2022/09/07 10:53:29;;;;;;;;;;;;;;;24.14;62.98;99211.66;7318392;19;129135;-41
2022/09/07 10:56:07;;;;;;;;;;;;;;;24.22;63.21;99227.41;7318808;19;129319;-42
2022/09/07 10:58:51;;;;;;;;;;;;;;;24.15;63.06;99234.28;7317145;19;129207;-42
2022/09/07 11:01:22;;;;;;;;;;;;;;;23.99;63.98;99205.41;7319623;19;129602;-42
2022/09/07 11:03:53;;;;;;;;;;;;;;;24.14;63.73;99227.41;7317401;19;131366;-40
2022/09/07 11:06:20;;;;;;;;;;;;;;;24.14;63.72;99221.34;7318168;19;129394;-41
2022/09/07 11:08:46;;;;;;;;;;;;;;;24.11;64.75;99217.22;7316444;19;129258;-39
2022/09/07 11:11:23;;;;;;;;;;;;;;;24.01;64.96;99224.47;7317143;19;129055;-40
2022/09/07 11:13:50;;;;;;;;;;;;;;;24.05;64.59;99214.44;7318618;19;130592;-38
2022/09/07 11:16:19;;;;;;;;;;;;;;;23.85;63.91;99227.03;7318393;19;129364;-42
2022/09/07 11:18:51;;;;;;;;;;;;;;;23.78;65.13;99199.81;7316299;19;128987;-41
2022/09/07 11:21:18;;;;;;;;;;;;;;;23.96;65.09;99213.59;7317953;19;129381;-42
2022/09/07 11:23:45;;;;;;;;;;;;;;;23.90;64.79;99206.34;7314842;19;129888;-38
2022/09/07 11:26:29;;;;;;;;;;;;;;;24.02;64.63;99227.88;7317190;19;129208;-40
2022/09/07 11:29:18;;;;;;;;;;;;;;;23.90;64.88;99213.44;7315271;19;129000;-41
2022/09/07 11:31:49;;;;;;;;;;;;;;;24.03;64.09;99217.22;7315844;19;129008;-38
2022/09/07 11:34:14;;;;;;;;;;;;;;;24.05;64.12;99227.56;7318241;19;129255;-42
2022/09/07 11:36:45;;;;;;;;;;;;;;;24.11;64.07;99221.66;7318568;19;129591;-40
2022/09/07 11:39:15;;;;;;;;;;;;;;;24.17;64.00;99219.19;7315247;19;128832;-40
2022/09/07 11:41:46;;;;;;;;;;;;;;;24.03;64.31;99213.78;7315770;19;128901;-39
2022/09/07 11:44:14;;;;;;;;;;;;;;;24.02;64.10;99197.22;7317357;19;129062;-40
2022/09/07 11:46:42;;;;;;;;;;;;;;;24.10;64.82;99205.06;7317350;19;129340;-39
2022/09/07 11:49:19;;;;;;;;;;;;;;;24.06;64.65;99198.53;7315374;19;128973;-38
2022/09/07 11:51:44;;;;;;;;;;;;;;;24.02;65.11;99207.72;7316788;19;129623;-41
2022/09/07 11:54:36;;;;;;;;;;;;;;;23.88;64.95;99187.31;7317292;19;129482;-40
2022/09/07 11:57:04;;;;;;;;;;;;;;;23.89;64.42;99191.59;7317565;19;129564;-39
2022/09/07 11:59:48;;;;;;;;;;;;;;;24.02;64.57;99191.13;7316582;19;129485;-40
2022/09/07 12:02:16;;;;;;;;;;;;;;;24.10;63.69;99194.56;7316277;19;129618;-39
2022/09/07 12:05:05;;;;;;;;;;;;;;;24.15;63.72;99189.66;7317108;19;129232;-39
2022/09/07 12:07:30;;;;;;;;;;;;;;;24.18;63.45;99185.88;7312793;19;129740;-40
2022/09/07 12:10:07;;;;;;;;;;;;;;;24.05;63.72;99191.63;7316294;19;129262;-38
2022/09/07 12:12:49;;;;;;;;;;;;;;;23.93;64.04;99174.50;7316478;19;129032;-41
2022/09/07 12:15:31;;;;;;;;;;;;;;;23.98;63.98;99180.13;7316801;19;129419;-41
2022/09/07 12:18:15;;;;;;;;;;;;;;;24.03;64.07;99177.81;7315161;19;132795;-40
2022/09/07 12:20:44;;;;;;;;;;;;;;;24.12;64.04;99183.91;7316198;19;129322;-41
2022/09/07 12:23:19;;;;;;;;;;;;;;;24.13;63.53;99173.22;7313937;19;129197;-41
2022/09/07 12:25:46;;;;;;;;;;;;;;;24.18;63.37;99167.50;7315408;19;129313;-41
2022/09/07 12:28:23;;;;;;;;;;;;;;;24.22;63.06;99148.59;7315025;19;129256;-41
2022/09/07 12:30:56;;;;;;;;;;;;;;;24.22;63.78;99155.66;7316422;19;129211;-42
2022/09/07 12:33:23;;;;;;;;;;;;;;;24.24;63.42;99162.38;7316182;19;129122;-42
2022/09/07 12:35:48;;;;;;;;;;;;;;;24.23;63.22;99158.09;7315231;19;129817;-38
2022/09/07 12:38:16;;;;;;;;;;;;;;;24.13;63.25;99157.47;7314359;19;129382;-37
2022/09/07 12:40:41;;;;;;;;;;;;;;;24.24;63.77;99191.28;7314354;19;130096;-41
2022/09/07 12:43:12;;;;;;;;;;;;;;;24.19;63.52;99185.72;7313777;19;129468;-41